createdAt,value
2022-10-22T00:01:01.745Z,99475.97
2022-10-22T00:03:28.244Z,99478.69
2022-10-22T00:05:54.852Z,99479.53
2022-10-22T00:08:21.399Z,99480.38
2022-10-22T00:10:47.960Z,99477.75
2022-10-22T00:13:14.633Z,99487.38
2022-10-22T00:15:41.228Z,99489.28
2022-10-22T00:18:07.811Z,99479.59
2022-10-22T00:20:34.389Z,99479.59
2022-10-22T00:23:00.920Z,99492.72
2022-10-22T00:25:27.560Z,99491.78
2022-10-22T00:27:54.051Z,99492.66
2022-10-22T00:30:20.553Z,99500.56
2022-10-22T00:32:47.089Z,99489.41
2022-10-22T00:35:13.562Z,99484.31
2022-10-22T00:37:40.275Z,99493.13
2022-10-22T00:40:07.440Z,99492.31
2022-10-22T00:42:33.925Z,99490.59
2022-10-22T00:45:13.853Z,99501.91
2022-10-22T00:47:50.928Z,99500.94
2022-10-22T00:50:22.761Z,99502.72
2022-10-22T00:52:50.389Z,99494.78
2022-10-22T00:55:18.562Z,99498.44
2022-10-22T00:57:46.119Z,99516.63
2022-10-22T01:00:13.620Z,99514.00
2022-10-22T01:02:40.657Z,99513.25
2022-10-22T01:05:07.769Z,99513.31
2022-10-22T01:07:41.942Z,99516.84
2022-10-22T01:10:08.366Z,99518.66
2022-10-22T01:12:43.800Z,99514.34
2022-10-22T01:15:24.518Z,99520.56
2022-10-22T01:18:02.989Z,99507.59
2022-10-22T01:21:03.207Z,99513.59
2022-10-22T01:24:03.377Z,99518.66
2022-10-22T01:26:51.192Z,99512.66
2022-10-22T01:29:30.119Z,99500.66
2022-10-22T01:32:08.127Z,99505.66
2022-10-22T01:34:36.600Z,99504.78
2022-10-22T01:37:03.824Z,99501.47
2022-10-22T01:39:31.337Z,99506.69
2022-10-22T01:41:58.166Z,99509.19
2022-10-22T01:47:10.406Z,99503.19
2022-10-22T01:49:58.678Z,99502.56
2022-10-22T01:52:33.020Z,99497.38
2022-10-22T01:55:11.710Z,99498.31
2022-10-22T01:57:51.953Z,99493.13
2022-10-22T02:00:19.567Z,99494.03
2022-10-22T02:03:05.959Z,99496.63
2022-10-22T02:05:54.066Z,99490.66
2022-10-22T02:08:29.194Z,99475.09
2022-10-22T02:10:58.389Z,99490.63
2022-10-22T02:13:30.512Z,99485.50
2022-10-22T02:15:58.713Z,99486.44
2022-10-22T02:18:29.309Z,99492.38
2022-10-22T02:20:56.272Z,99483.78
2022-10-22T02:23:23.431Z,99482.06
2022-10-22T02:26:00.646Z,99485.53
2022-10-22T02:28:36.881Z,99484.66
2022-10-22T02:31:17.553Z,99483.84
2022-10-22T02:33:51.448Z,99476.06
2022-10-22T02:36:18.727Z,99465.72
2022-10-22T02:38:47.748Z,99474.38
2022-10-22T02:41:17.085Z,99463.19
2022-10-22T02:43:45.875Z,99461.50
2022-10-22T02:46:12.846Z,99460.59
2022-10-22T02:48:39.357Z,99464.94
2022-10-22T02:51:06.052Z,99459.81
2022-10-22T02:53:32.835Z,99452.91
2022-10-22T02:56:00.102Z,99443.47
2022-10-22T02:58:26.645Z,99443.44
2022-10-22T03:00:53.465Z,99451.22
2022-10-22T03:03:20.006Z,99445.16
2022-10-22T03:05:46.505Z,99427.09
2022-10-22T03:08:13.133Z,99422.78
2022-10-22T03:10:39.622Z,99424.50
2022-10-22T03:13:06.177Z,99413.41
2022-10-22T03:15:32.841Z,99416.06
2022-10-22T03:17:59.387Z,99400.53
2022-10-22T03:20:25.980Z,99404.84
2022-10-22T03:22:52.934Z,99414.38
2022-10-22T03:25:23.059Z,99397.09
2022-10-22T03:27:54.394Z,99393.66
2022-10-22T03:30:20.982Z,99392.78
2022-10-22T03:32:47.611Z,99410.84
2022-10-22T03:35:14.318Z,99427.28
2022-10-22T03:37:41.205Z,99423.00
2022-10-22T03:40:09.153Z,99418.66
2022-10-22T03:42:37.873Z,99421.31
2022-10-22T03:45:05.255Z,99419.56
2022-10-22T03:47:31.776Z,99429.09
2022-10-22T03:49:58.253Z,99429.97
2022-10-22T03:52:24.914Z,99423.09
2022-10-22T03:54:51.768Z,99420.47
2022-10-22T03:57:18.509Z,99421.34
2022-10-22T03:59:46.725Z,99420.47
2022-10-22T04:02:13.922Z,99421.34
2022-10-22T04:04:40.409Z,99431.72
2022-10-22T04:07:08.063Z,99435.16
2022-10-22T04:09:35.221Z,99432.56
2022-10-22T04:12:02.278Z,99432.59
2022-10-22T04:14:28.806Z,99434.28
2022-10-22T04:16:55.559Z,99452.41
2022-10-22T04:19:22.796Z,99453.25
2022-10-22T04:21:49.540Z,99454.13
2022-10-22T04:24:16.207Z,99459.31
2022-10-22T04:26:42.888Z,99455.84
2022-10-22T04:29:13.439Z,99459.34
2022-10-22T04:31:42.628Z,99469.69
2022-10-22T04:34:09.110Z,99458.47
2022-10-22T04:36:35.680Z,99456.72
2022-10-22T04:39:02.667Z,99461.03
2022-10-22T04:41:32.960Z,99462.78
2022-10-22T04:43:59.930Z,99461.09
2022-10-22T04:46:28.691Z,99467.09
2022-10-22T04:48:55.447Z,99459.34
2022-10-22T04:51:24.296Z,99455.00
2022-10-22T04:53:50.896Z,99461.91
2022-10-22T04:56:21.473Z,99454.16
2022-10-22T04:58:49.236Z,99450.72
2022-10-22T05:01:27.277Z,99443.84
2022-10-22T05:03:55.695Z,99446.44
2022-10-22T05:06:24.773Z,99447.25
2022-10-22T05:09:03.799Z,99462.78
2022-10-22T05:11:33.981Z,99473.09
2022-10-22T05:14:02.739Z,99478.31
2022-10-22T05:16:32.422Z,99475.72
2022-10-22T05:19:00.430Z,99486.91
2022-10-22T05:21:27.787Z,99487.81
2022-10-22T05:23:56.109Z,99490.34
2022-10-22T05:26:24.357Z,99501.53
2022-10-22T05:28:51.553Z,99511.06
2022-10-22T05:31:19.127Z,99510.25
2022-10-22T05:33:46.291Z,99494.69
2022-10-22T05:36:15.207Z,99507.69
2022-10-22T05:38:41.825Z,99499.91
2022-10-22T05:41:11.297Z,99492.13
2022-10-22T05:43:38.777Z,99496.44
2022-10-22T05:46:17.564Z,99487.84
2022-10-22T05:48:51.133Z,99474.88
2022-10-22T05:51:18.109Z,99486.94
2022-10-22T05:53:46.037Z,99477.47
2022-10-22T05:56:15.427Z,99493.84
2022-10-22T05:58:45.374Z,99505.06
2022-10-22T06:01:24.076Z,99499.06
2022-10-22T06:03:54.303Z,99511.13
2022-10-22T06:06:27.027Z,99510.25
2022-10-22T06:08:55.360Z,99499.94
2022-10-22T06:11:23.342Z,99502.53
2022-10-22T06:13:50.962Z,99498.22
2022-10-22T06:16:17.781Z,99492.19
2022-10-22T06:18:44.367Z,99500.84
2022-10-22T06:21:13.705Z,99495.66
2022-10-22T06:23:41.342Z,99501.72
2022-10-22T06:26:09.157Z,99493.94
2022-10-22T06:28:36.226Z,99506.91
2022-10-22T06:31:03.598Z,99508.63
2022-10-22T06:33:33.286Z,99503.47
2022-10-22T06:36:07.923Z,99507.78
2022-10-22T06:38:34.944Z,99500.88
2022-10-22T06:41:06.856Z,99503.50
2022-10-22T06:43:33.429Z,99512.09
2022-10-22T06:46:03.042Z,99512.97
2022-10-22T06:48:30.518Z,99502.63
2022-10-22T06:51:02.053Z,99507.81
2022-10-22T06:53:29.199Z,99514.69
2022-10-22T06:55:55.734Z,99521.59
2022-10-22T06:58:22.372Z,99523.31
2022-10-22T07:00:48.937Z,99525.88
2022-10-22T07:03:15.878Z,99525.03
2022-10-22T07:05:42.732Z,99536.25
2022-10-22T07:08:09.711Z,99537.97
2022-10-22T07:10:36.350Z,99531.94
2022-10-22T07:13:02.824Z,99541.41
2022-10-22T07:15:29.349Z,99550.06
2022-10-22T07:17:55.822Z,99550.91
2022-10-22T07:20:22.374Z,99553.50
2022-10-22T07:22:48.972Z,99549.16
2022-10-22T07:25:15.580Z,99558.69
2022-10-22T07:27:42.421Z,99548.31
2022-10-22T07:30:09.487Z,99567.28
2022-10-22T07:32:37.083Z,99572.47
2022-10-22T07:35:04.629Z,99587.13
2022-10-22T07:37:31.607Z,99589.69
2022-10-22T07:40:02.756Z,99584.53
2022-10-22T07:45:02.912Z,99625.94
2022-10-22T07:47:29.407Z,99641.44
2022-10-22T07:49:55.868Z,99646.63
2022-10-22T07:52:22.403Z,99650.09
2022-10-22T07:54:48.924Z,99660.47
2022-10-22T07:57:15.534Z,99668.25
2022-10-22T07:59:42.086Z,99674.28
2022-10-22T08:02:11.251Z,99675.97
2022-10-22T08:04:38.023Z,99682.06
2022-10-22T08:07:05.136Z,99677.72
2022-10-22T08:09:31.654Z,99663.91
2022-10-22T08:11:58.255Z,99667.34
2022-10-22T08:14:24.776Z,99678.56
2022-10-22T08:16:51.307Z,99681.13
2022-10-22T08:19:18.899Z,99687.22
2022-10-22T08:21:46.151Z,99699.28
2022-10-22T08:24:13.309Z,99693.22
2022-10-22T08:26:40.501Z,99705.31
2022-10-22T08:29:08.025Z,99710.47
2022-10-22T08:31:35.025Z,99708.69
2022-10-22T08:34:01.617Z,99711.28
2022-10-22T08:36:28.427Z,99710.38
2022-10-22T08:38:54.987Z,99719.91
2022-10-22T08:41:24.531Z,99710.38
2022-10-22T08:44:06.219Z,99722.44
2022-10-22T08:46:52.798Z,99714.66
2022-10-22T08:49:22.944Z,99720.69
2022-10-22T08:51:49.865Z,99721.56
2022-10-22T08:54:25.271Z,99719.78
2022-10-22T08:57:07.836Z,99713.69
2022-10-22T08:59:40.067Z,99724.03
2022-10-22T09:02:34.912Z,99717.88
2022-10-22T09:05:11.570Z,99719.56
2022-10-22T09:07:43.497Z,99730.88
2022-10-22T09:10:12.890Z,99734.28
2022-10-22T09:12:39.834Z,99741.16
2022-10-22T09:15:09.520Z,99736.81
2022-10-22T09:17:50.279Z,99741.97
2022-10-22T09:20:28.702Z,99744.56
2022-10-22T09:23:19.837Z,99739.31
2022-10-22T09:25:46.960Z,99741.06
2022-10-22T09:28:14.096Z,99747.03
2022-10-22T09:30:40.707Z,99758.28
2022-10-22T09:33:07.257Z,99749.53
2022-10-22T09:35:45.923Z,99746.06
2022-10-22T09:38:15.371Z,99740.75
2022-10-22T09:41:03.761Z,99740.66
2022-10-22T09:43:31.487Z,99736.31
2022-10-22T09:46:03.747Z,99742.34
2022-10-22T09:48:35.117Z,99749.22
2022-10-22T09:51:10.977Z,99744.00
2022-10-22T09:53:42.666Z,99745.63
2022-10-22T09:56:28.749Z,99743.81
2022-10-22T09:58:57.610Z,99740.31
2022-10-22T10:01:28.217Z,99741.91
2022-10-22T10:03:55.068Z,99740.03
2022-10-22T10:06:23.289Z,99734.75
2022-10-22T10:08:50.865Z,99731.06
2022-10-22T10:11:32.533Z,99728.44
2022-10-22T10:14:20.248Z,99728.38
2022-10-22T10:17:04.951Z,99717.78
2022-10-22T10:20:03.787Z,99706.34
2022-10-22T10:23:00.151Z,99701.06
2022-10-22T10:26:10.084Z,99693.13
2022-10-22T10:29:15.352Z,99698.25
2022-10-22T10:32:00.144Z,99688.66
2022-10-22T10:34:43.138Z,99690.16
2022-10-22T10:37:10.649Z,99685.66
2022-10-22T10:39:40.794Z,99675.16
2022-10-22T10:42:26.558Z,99677.69
2022-10-22T10:45:11.099Z,99678.44
2022-10-22T10:48:05.217Z,99671.31
2022-10-22T10:50:45.894Z,99671.25
2022-10-22T10:53:41.624Z,99672.91
2022-10-22T10:56:23.017Z,99668.44
2022-10-22T10:59:04.972Z,99676.16
2022-10-22T11:01:48.993Z,99675.06
2022-10-22T11:04:24.343Z,99673.19
2022-10-22T11:06:58.643Z,99674.00
2022-10-22T11:09:34.568Z,99669.66
2022-10-22T11:12:05.595Z,99666.06
2022-10-22T11:14:41.520Z,99661.56
2022-10-22T11:17:15.960Z,99653.53
2022-10-22T11:19:55.646Z,99664.13
2022-10-22T11:22:28.624Z,99657.13
2022-10-22T11:25:02.031Z,99654.44
2022-10-22T11:27:50.138Z,99646.50
2022-10-22T11:30:19.835Z,99640.03
2022-10-22T11:32:51.742Z,99636.41
2022-10-22T11:35:25.919Z,99626.78
2022-10-22T11:37:55.873Z,99626.59
2022-10-22T11:40:48.292Z,99619.84
2022-10-22T11:43:28.551Z,99607.81
2022-10-22T11:46:27.223Z,99602.34
2022-10-22T11:49:25.941Z,99602.34
2022-10-22T11:52:15.975Z,99594.31
2022-10-22T11:54:44.912Z,99588.31
2022-10-22T11:57:14.947Z,99592.53
2022-10-22T11:59:52.056Z,99588.88
2022-10-22T12:02:40.047Z,99589.69
2022-10-22T12:05:25.113Z,99582.53
2022-10-22T12:08:00.171Z,99582.59
2022-10-22T12:10:34.165Z,99576.19
2022-10-22T12:13:21.162Z,99563.03
2022-10-22T12:15:49.181Z,99560.34
2022-10-22T12:18:16.627Z,99552.69
2022-10-22T12:20:43.330Z,99561.22
2022-10-22T12:23:13.838Z,99548.28
2022-10-22T12:25:40.402Z,99550.69
2022-10-22T12:28:12.129Z,99534.16
2022-10-22T12:30:38.728Z,99524.63
2022-10-22T12:33:07.803Z,99533.31
2022-10-22T12:35:43.696Z,99514.09
2022-10-22T12:38:20.318Z,99513.06
2022-10-22T12:40:49.238Z,99508.53
2022-10-22T12:43:24.019Z,99497.31
2022-10-22T12:45:51.741Z,99494.69
2022-10-22T12:48:31.044Z,99495.38
2022-10-22T12:51:00.701Z,99490.06
2022-10-22T12:53:31.856Z,99483.94
2022-10-22T12:56:04.282Z,99479.50
2022-10-22T12:58:41.017Z,99472.38
2022-10-22T13:01:12.019Z,99467.97
2022-10-22T13:03:51.330Z,99458.19
2022-10-22T13:06:21.579Z,99457.13
2022-10-22T13:09:00.159Z,99463.31
2022-10-22T13:11:42.793Z,99451.84
2022-10-22T13:14:27.843Z,99451.78
2022-10-22T13:17:20.463Z,99446.56
2022-10-22T13:19:46.967Z,99444.69
2022-10-22T13:22:27.714Z,99446.94
2022-10-22T13:27:28.998Z,99444.88
2022-10-22T13:29:57.180Z,99441.06
2022-10-22T13:32:34.065Z,99443.47
2022-10-22T13:35:04.433Z,99430.22
2022-10-22T13:37:34.152Z,99431.66
2022-10-22T13:40:00.861Z,99418.78
2022-10-22T13:42:27.428Z,99415.22
2022-10-22T13:44:53.957Z,99411.34
2022-10-22T13:47:26.648Z,99399.91
2022-10-22T13:52:29.808Z,99398.97
2022-10-22T13:54:56.404Z,99390.06
2022-10-22T13:57:22.954Z,99391.81
2022-10-22T13:59:49.595Z,99390.72
2022-10-22T14:02:16.788Z,99386.06
2022-10-22T14:04:44.197Z,99379.66
2022-10-22T14:07:15.764Z,99372.69
2022-10-22T14:09:43.885Z,99367.16
2022-10-22T14:12:16.219Z,99360.75
2022-10-22T14:14:43.219Z,99367.50
2022-10-22T14:17:16.759Z,99358.47
2022-10-22T14:19:45.903Z,99366.19
2022-10-22T14:22:17.616Z,99358.09
2022-10-22T14:24:45.319Z,99370.75
2022-10-22T14:27:14.527Z,99363.03
2022-10-22T14:29:41.516Z,99366.47
2022-10-22T14:32:17.052Z,99365.72
2022-10-22T14:34:43.734Z,99363.63
2022-10-22T14:37:18.838Z,99363.72
2022-10-22T14:39:52.106Z,99368.19
2022-10-22T14:42:20.066Z,99366.81
2022-10-22T14:44:47.078Z,99358.97
2022-10-22T14:47:13.665Z,99352.16
2022-10-22T14:49:40.378Z,99352.03
2022-10-22T14:52:09.501Z,99351.28
2022-10-22T14:54:38.305Z,99348.91
2022-10-22T14:57:05.569Z,99349.78
2022-10-22T14:59:32.236Z,99340.00
2022-10-22T15:01:58.772Z,99336.66
2022-10-22T15:04:27.179Z,99328.75
2022-10-22T15:06:57.123Z,99333.13
2022-10-22T15:09:24.893Z,99332.44
2022-10-22T15:11:51.650Z,99329.88
2022-10-22T15:14:18.591Z,99329.00
2022-10-22T15:16:45.231Z,99315.84
2022-10-22T15:19:11.858Z,99310.66
2022-10-22T15:21:38.740Z,99312.34
2022-10-22T15:24:05.860Z,99311.06
2022-10-22T15:26:32.421Z,99312.09
2022-10-22T15:28:59.237Z,99311.44
2022-10-22T15:31:42.949Z,99315.09
2022-10-22T15:34:09.429Z,99316.66
2022-10-22T15:36:35.939Z,99306.97
2022-10-22T15:39:08.238Z,99312.59
2022-10-22T15:41:34.745Z,99308.94
2022-10-22T15:44:01.310Z,99299.56
2022-10-22T15:46:33.214Z,99303.06
2022-10-22T15:49:01.961Z,99304.00
2022-10-22T15:51:28.567Z,99304.56
2022-10-22T15:53:57.188Z,99304.50
2022-10-22T15:56:26.404Z,99307.06
2022-10-22T15:58:58.418Z,99298.94
2022-10-22T16:01:27.120Z,99298.19
2022-10-22T16:03:59.986Z,99308.97
2022-10-22T16:06:28.471Z,99311.00
2022-10-22T16:08:57.557Z,99312.38
2022-10-22T16:11:24.159Z,99304.66
2022-10-22T16:13:56.832Z,99301.97
2022-10-22T16:16:25.715Z,99306.56
2022-10-22T16:18:52.954Z,99308.25
2022-10-22T16:21:20.894Z,99311.91
2022-10-22T16:23:47.579Z,99311.28
2022-10-22T16:26:15.610Z,99311.63
2022-10-22T16:28:43.046Z,99315.03
2022-10-22T16:31:13.242Z,99310.19
2022-10-22T16:33:46.470Z,99314.78
2022-10-22T16:36:19.239Z,99319.19
2022-10-22T16:38:47.389Z,99321.19
2022-10-22T16:41:15.357Z,99326.53
2022-10-22T16:43:42.898Z,99328.47
2022-10-22T16:46:10.443Z,99331.25
2022-10-22T16:48:42.111Z,99337.44
2022-10-22T16:51:10.883Z,99342.06
2022-10-22T16:53:37.513Z,99337.81
2022-10-22T16:56:04.557Z,99334.28
2022-10-22T16:58:31.058Z,99344.03
2022-10-22T17:00:57.585Z,99341.75
2022-10-22T17:03:27.451Z,99351.53
2022-10-22T17:05:58.475Z,99354.97
2022-10-22T17:08:25.150Z,99346.44
2022-10-22T17:10:51.615Z,99351.78
2022-10-22T17:13:18.259Z,99352.00
2022-10-22T17:15:44.822Z,99363.97
2022-10-22T17:18:11.522Z,99360.72
2022-10-22T17:20:43.220Z,99370.47
2022-10-22T17:23:09.960Z,99366.22
2022-10-22T17:25:42.759Z,99374.94
2022-10-22T17:28:12.918Z,99378.50
2022-10-22T17:30:40.809Z,99378.81
2022-10-22T17:33:08.616Z,99373.69
2022-10-22T17:35:39.466Z,99373.47
2022-10-22T17:38:06.883Z,99380.63
2022-10-22T17:40:35.306Z,99371.13
2022-10-22T17:43:01.877Z,99388.56
2022-10-22T17:45:28.659Z,99388.78
2022-10-22T17:47:57.264Z,99394.09
2022-10-22T17:50:23.838Z,99389.97
2022-10-22T17:52:50.634Z,99393.63
2022-10-22T17:55:17.210Z,99388.44
2022-10-22T17:57:43.736Z,99377.28
2022-10-22T18:00:10.999Z,99381.72
2022-10-22T18:02:37.844Z,99380.72
2022-10-22T18:05:04.706Z,99387.84
2022-10-22T18:07:31.754Z,99400.19
2022-10-22T18:09:58.658Z,99395.81
2022-10-22T18:12:25.377Z,99394.88
2022-10-22T18:14:51.896Z,99394.94
2022-10-22T18:17:18.405Z,99388.22
2022-10-22T18:19:44.989Z,99368.34
2022-10-22T18:22:11.559Z,99357.28
2022-10-22T18:24:39.061Z,99355.53
2022-10-22T18:27:05.731Z,99361.63
2022-10-22T18:29:32.300Z,99375.66
2022-10-22T18:31:58.830Z,99376.53
2022-10-22T18:34:25.309Z,99379.59
2022-10-22T18:36:51.979Z,99378.53
2022-10-22T18:39:19.467Z,99376.03
2022-10-22T18:41:46.048Z,99370.97
2022-10-22T18:44:14.240Z,99383.94
2022-10-22T18:46:40.828Z,99375.25
2022-10-22T18:49:07.665Z,99372.63
2022-10-22T18:51:35.812Z,99366.75
2022-10-22T18:54:21.417Z,99368.63
2022-10-22T18:56:49.071Z,99376.38
2022-10-22T18:59:21.462Z,99373.13
2022-10-22T19:01:48.320Z,99376.59
2022-10-22T19:04:15.023Z,99368.81
2022-10-22T19:06:45.277Z,99382.06
2022-10-22T19:09:13.694Z,99377.63
2022-10-22T19:11:40.399Z,99384.66
2022-10-22T19:14:07.167Z,99404.59
2022-10-22T19:16:35.329Z,99400.34
2022-10-22T19:19:05.033Z,99398.56
2022-10-22T19:21:32.009Z,99395.91
2022-10-22T19:24:00.298Z,99396.75
2022-10-22T19:26:28.174Z,99386.53
2022-10-22T19:28:56.001Z,99379.63
2022-10-22T19:31:24.228Z,99371.91
2022-10-22T19:33:55.322Z,99367.63
2022-10-22T19:36:27.658Z,99384.03
2022-10-22T19:38:54.638Z,99381.59
2022-10-22T19:41:22.955Z,99385.97
2022-10-22T19:43:52.026Z,99388.59
2022-10-22T19:46:19.882Z,99379.88
2022-10-22T19:48:46.785Z,99369.50
2022-10-22T19:51:21.856Z,99368.59
2022-10-22T19:53:49.503Z,99361.78
2022-10-22T19:56:20.730Z,99365.25
2022-10-22T19:58:47.755Z,99362.56
2022-10-22T20:01:16.420Z,99355.97
2022-10-22T20:03:43.581Z,99359.50
2022-10-22T20:06:11.816Z,99356.72
2022-10-22T20:08:39.736Z,99355.13
2022-10-22T20:11:10.777Z,99347.31
2022-10-22T20:16:10.226Z,99357.00
2022-10-22T20:18:37.886Z,99357.78
2022-10-22T20:21:06.219Z,99348.31
2022-10-22T20:23:33.000Z,99348.38
2022-10-22T20:26:00.034Z,99344.22
2022-10-22T20:28:26.593Z,99358.81
2022-10-22T20:30:53.296Z,99351.13
2022-10-22T20:33:19.855Z,99348.47
2022-10-22T20:35:46.396Z,99348.59
2022-10-22T20:38:14.794Z,99338.25
2022-10-22T20:40:41.514Z,99343.41
2022-10-22T20:43:10.591Z,99348.72
2022-10-22T20:45:39.266Z,99346.16
2022-10-22T20:48:06.251Z,99338.25
2022-10-22T20:50:33.198Z,99335.75
2022-10-22T20:52:59.825Z,99329.72
2022-10-22T20:55:27.447Z,99332.28
2022-10-22T20:57:54.041Z,99329.03
2022-10-22T21:00:20.838Z,99331.50
2022-10-22T21:02:47.397Z,99327.16
2022-10-22T21:05:13.975Z,99332.47
2022-10-22T21:07:40.699Z,99320.34
2022-10-22T21:10:08.864Z,99317.84
2022-10-22T21:12:35.767Z,99323.88
2022-10-22T21:15:02.335Z,99322.03
2022-10-22T21:17:28.827Z,99324.69
2022-10-22T21:19:55.315Z,99319.66
2022-10-22T21:22:21.802Z,99320.41
2022-10-22T21:24:48.431Z,99319.63
2022-10-22T21:27:15.021Z,99324.69
2022-10-22T21:29:41.598Z,99330.06
2022-10-22T21:32:08.623Z,99317.88
2022-10-22T21:34:38.237Z,99329.16
2022-10-22T21:37:05.776Z,99323.31
2022-10-22T21:39:32.360Z,99325.00
2022-10-22T21:41:58.989Z,99337.09
2022-10-22T21:44:25.523Z,99343.19
2022-10-22T21:46:52.087Z,99338.06
2022-10-22T21:49:18.629Z,99334.63
2022-10-22T21:51:45.168Z,99333.69
2022-10-22T21:54:12.782Z,99331.19
2022-10-22T21:56:40.282Z,99321.19
2022-10-22T21:59:07.522Z,99326.38
2022-10-22T22:01:44.552Z,99330.47
2022-10-22T22:07:13.082Z,99308.91
2022-10-22T22:09:50.463Z,99320.91
2022-10-22T22:12:36.129Z,99322.78
2022-10-22T22:15:27.819Z,99306.06
2022-10-22T22:18:10.362Z,99308.75
2022-10-22T22:20:37.798Z,99294.97
2022-10-22T22:23:04.266Z,99301.00
2022-10-22T22:25:30.820Z,99289.59
2022-10-22T22:27:57.360Z,99311.13
2022-10-22T22:30:25.019Z,99299.19
2022-10-22T22:32:51.577Z,99288.75
2022-10-22T22:35:19.283Z,99301.78
2022-10-22T22:37:45.792Z,99281.13
2022-10-22T22:40:12.614Z,99270.63
2022-10-22T22:42:39.111Z,99271.59
2022-10-22T22:45:05.956Z,99276.75
2022-10-22T22:47:32.515Z,99281.00
2022-10-22T22:49:59.033Z,99274.09
2022-10-22T22:52:25.623Z,99273.31
2022-10-22T22:54:52.125Z,99270.72
2022-10-22T22:57:18.636Z,99264.72
2022-10-22T22:59:45.120Z,99261.94
2022-10-22T23:02:11.577Z,99253.50
2022-10-22T23:04:38.059Z,99234.53
2022-10-22T23:07:04.638Z,99244.78
2022-10-22T23:09:31.138Z,99246.47
2022-10-22T23:11:57.614Z,99248.19
2022-10-22T23:14:25.046Z,99236.84
2022-10-22T23:16:52.875Z,99233.50
2022-10-22T23:19:22.506Z,99227.22
2022-10-22T23:21:51.826Z,99239.31
2022-10-22T23:24:20.947Z,99238.59
2022-10-22T23:26:49.633Z,99230.75
2022-10-22T23:29:19.704Z,99222.09
2022-10-22T23:31:47.558Z,99215.09
2022-10-22T23:36:50.412Z,99222.88
2022-10-22T23:39:19.637Z,99219.50
2022-10-22T23:41:46.408Z,99224.69
2022-10-22T23:44:13.636Z,99211.72
2022-10-22T23:46:40.468Z,99215.16
2022-10-22T23:49:09.108Z,99213.31
2022-10-22T23:51:36.218Z,99218.44
2022-10-22T23:54:05.876Z,99202.78
2022-10-22T23:56:33.507Z,99201.09
2022-10-22T23:59:00.067Z,99208.88
